sensor_id;sensor_type;location;lat;lon;timestamp;P1;durP1;ratioP1;P2;durP2;ratioP2
22064;SDS011;11197;53.110;8.468;2022-09-01T00:01:55;2.60;;;0.98;;
22064;SDS011;11197;53.110;8.468;2022-09-01T00:04:23;2.83;;;1.00;;
22064;SDS011;11197;53.110;8.468;2022-09-01T00:06:51;2.85;;;0.93;;
22064;SDS011;11197;53.110;8.468;2022-09-01T00:09:19;2.38;;;0.95;;
22064;SDS011;11197;53.110;8.468;2022-09-01T00:11:47;1.50;;;0.80;;
22064;SDS011;11197;53.110;8.468;2022-09-01T00:14:17;2.55;;;1.00;;
22064;SDS011;11197;53.110;8.468;2022-09-01T00:16:44;2.70;;;0.88;;
22064;SDS011;11197;53.110;8.468;2022-09-01T00:19:10;5.20;;;0.95;;
22064;SDS011;11197;53.110;8.468;2022-09-01T00:21:37;2.35;;;1.02;;
22064;SDS011;11197;53.110;8.468;2022-09-01T00:24:07;3.67;;;0.90;;
22064;SDS011;11197;53.110;8.468;2022-09-01T00:26:33;2.13;;;0.90;;
22064;SDS011;11197;53.110;8.468;2022-09-01T00:29:00;2.97;;;1.00;;
22064;SDS011;11197;53.110;8.468;2022-09-01T00:31:26;1.65;;;0.90;;
22064;SDS011;11197;53.110;8.468;2022-09-01T00:33:52;2.13;;;1.08;;
22064;SDS011;11197;53.110;8.468;2022-09-01T00:36:19;2.15;;;1.08;;
22064;SDS011;11197;53.110;8.468;2022-09-01T00:38:45;3.85;;;1.00;;
22064;SDS011;11197;53.110;8.468;2022-09-01T00:41:12;2.88;;;1.30;;
22064;SDS011;11197;53.110;8.468;2022-09-01T00:44:13;2.15;;;1.08;;
22064;SDS011;11197;53.110;8.468;2022-09-01T00:46:44;2.75;;;1.00;;
22064;SDS011;11197;53.110;8.468;2022-09-01T00:51:58;2.10;;;1.00;;
22064;SDS011;11197;53.110;8.468;2022-09-01T00:54:30;1.95;;;0.82;;
22064;SDS011;11197;53.110;8.468;2022-09-01T00:57:00;2.80;;;1.10;;
22064;SDS011;11197;53.110;8.468;2022-09-01T00:59:27;1.52;;;0.82;;
22064;SDS011;11197;53.110;8.468;2022-09-01T01:01:55;2.17;;;0.93;;
22064;SDS011;11197;53.110;8.468;2022-09-01T01:04:22;3.17;;;0.93;;
22064;SDS011;11197;53.110;8.468;2022-09-01T01:06:49;1.65;;;0.90;;
22064;SDS011;11197;53.110;8.468;2022-09-01T01:09:27;2.63;;;1.10;;
22064;SDS011;11197;53.110;8.468;2022-09-01T01:11:55;3.08;;;0.90;;
22064;SDS011;11197;53.110;8.468;2022-09-01T01:14:24;2.75;;;1.00;;
22064;SDS011;11197;53.110;8.468;2022-09-01T01:16:53;1.10;;;0.80;;
22064;SDS011;11197;53.110;8.468;2022-09-01T01:22:48;1.73;;;1.00;;
22064;SDS011;11197;53.110;8.468;2022-09-01T01:25:57;2.38;;;1.00;;
22064;SDS011;11197;53.110;8.468;2022-09-01T01:31:01;1.45;;;0.82;;
22064;SDS011;11197;53.110;8.468;2022-09-01T01:33:41;5.80;;;1.20;;
22064;SDS011;11197;53.110;8.468;2022-09-01T01:36:11;3.60;;;1.00;;
22064;SDS011;11197;53.110;8.468;2022-09-01T01:38:46;1.95;;;1.00;;
22064;SDS011;11197;53.110;8.468;2022-09-01T01:41:15;1.58;;;0.77;;
22064;SDS011;11197;53.110;8.468;2022-09-01T01:43:44;1.92;;;0.90;;
22064;SDS011;11197;53.110;8.468;2022-09-01T01:46:12;1.50;;;0.88;;
22064;SDS011;11197;53.110;8.468;2022-09-01T01:48:40;2.42;;;0.90;;
22064;SDS011;11197;53.110;8.468;2022-09-01T01:51:08;2.03;;;0.80;;
22064;SDS011;11197;53.110;8.468;2022-09-01T01:53:36;2.17;;;0.90;;
22064;SDS011;11197;53.110;8.468;2022-09-01T01:56:03;5.95;;;1.13;;
22064;SDS011;11197;53.110;8.468;2022-09-01T01:58:33;1.45;;;0.80;;
22064;SDS011;11197;53.110;8.468;2022-09-01T02:01:05;1.10;;;0.70;;
22064;SDS011;11197;53.110;8.468;2022-09-01T02:03:33;1.30;;;0.90;;
22064;SDS011;11197;53.110;8.468;2022-09-01T02:06:02;2.40;;;1.17;;
22064;SDS011;11197;53.110;8.468;2022-09-01T02:08:32;1.20;;;0.80;;
22064;SDS011;11197;53.110;8.468;2022-09-01T02:11:01;1.35;;;0.85;;
22064;SDS011;11197;53.110;8.468;2022-09-01T02:13:28;2.35;;;0.90;;
22064;SDS011;11197;53.110;8.468;2022-09-01T02:15:59;1.57;;;1.00;;
22064;SDS011;11197;53.110;8.468;2022-09-01T02:18:34;1.88;;;0.90;;
22064;SDS011;11197;53.110;8.468;2022-09-01T02:21:02;3.45;;;1.52;;
22064;SDS011;11197;53.110;8.468;2022-09-01T02:23:34;1.98;;;1.10;;
22064;SDS011;11197;53.110;8.468;2022-09-01T02:26:00;2.53;;;1.17;;
22064;SDS011;11197;53.110;8.468;2022-09-01T02:28:27;1.98;;;1.10;;
22064;SDS011;11197;53.110;8.468;2022-09-01T02:30:56;2.55;;;1.00;;
22064;SDS011;11197;53.110;8.468;2022-09-01T02:33:25;3.30;;;1.45;;
22064;SDS011;11197;53.110;8.468;2022-09-01T02:35:54;1.73;;;0.90;;
22064;SDS011;11197;53.110;8.468;2022-09-01T02:38:23;1.35;;;0.88;;
22064;SDS011;11197;53.110;8.468;2022-09-01T02:40:55;1.83;;;0.90;;
22064;SDS011;11197;53.110;8.468;2022-09-01T02:43:23;1.65;;;0.90;;
22064;SDS011;11197;53.110;8.468;2022-09-01T02:45:53;1.50;;;0.82;;
22064;SDS011;11197;53.110;8.468;2022-09-01T02:48:31;2.00;;;1.20;;
22064;SDS011;11197;53.110;8.468;2022-09-01T02:51:02;1.85;;;0.80;;
22064;SDS011;11197;53.110;8.468;2022-09-01T02:53:31;2.05;;;1.00;;
22064;SDS011;11197;53.110;8.468;2022-09-01T02:56:02;1.70;;;0.90;;
22064;SDS011;11197;53.110;8.468;2022-09-01T02:58:33;1.70;;;0.88;;
22064;SDS011;11197;53.110;8.468;2022-09-01T03:01:09;2.05;;;1.13;;
22064;SDS011;11197;53.110;8.468;2022-09-01T03:03:44;1.23;;;0.80;;
22064;SDS011;11197;53.110;8.468;2022-09-01T03:06:10;1.70;;;0.93;;
22064;SDS011;11197;53.110;8.468;2022-09-01T03:08:37;2.10;;;1.00;;
22064;SDS011;11197;53.110;8.468;2022-09-01T03:11:05;3.30;;;0.98;;
22064;SDS011;11197;53.110;8.468;2022-09-01T03:13:37;1.70;;;0.90;;
22064;SDS011;11197;53.110;8.468;2022-09-01T03:16:05;1.83;;;1.05;;
22064;SDS011;11197;53.110;8.468;2022-09-01T03:18:32;2.33;;;1.13;;
22064;SDS011;11197;53.110;8.468;2022-09-01T03:20:59;1.48;;;0.90;;
22064;SDS011;11197;53.110;8.468;2022-09-01T03:23:28;2.72;;;1.10;;
22064;SDS011;11197;53.110;8.468;2022-09-01T03:25:55;2.13;;;0.90;;
22064;SDS011;11197;53.110;8.468;2022-09-01T03:28:22;1.13;;;0.85;;
22064;SDS011;11197;53.110;8.468;2022-09-01T03:30:50;1.50;;;1.10;;
22064;SDS011;11197;53.110;8.468;2022-09-01T03:33:18;3.13;;;0.98;;
22064;SDS011;11197;53.110;8.468;2022-09-01T03:35:45;3.10;;;1.00;;
22064;SDS011;11197;53.110;8.468;2022-09-01T03:38:12;2.00;;;0.80;;
22064;SDS011;11197;53.110;8.468;2022-09-01T03:40:47;1.35;;;0.90;;
22064;SDS011;11197;53.110;8.468;2022-09-01T03:43:17;2.15;;;1.00;;
22064;SDS011;11197;53.110;8.468;2022-09-01T03:48:13;2.58;;;1.08;;
22064;SDS011;11197;53.110;8.468;2022-09-01T03:50:42;1.88;;;1.15;;
22064;SDS011;11197;53.110;8.468;2022-09-01T03:53:11;1.58;;;0.95;;
22064;SDS011;11197;53.110;8.468;2022-09-01T03:55:39;2.63;;;1.30;;
22064;SDS011;11197;53.110;8.468;2022-09-01T03:58:07;1.48;;;1.00;;
22064;SDS011;11197;53.110;8.468;2022-09-01T04:00:35;2.83;;;1.13;;
22064;SDS011;11197;53.110;8.468;2022-09-01T04:03:04;2.22;;;1.33;;
22064;SDS011;11197;53.110;8.468;2022-09-01T04:05:32;1.95;;;1.23;;
22064;SDS011;11197;53.110;8.468;2022-09-01T04:08:02;3.50;;;1.10;;
22064;SDS011;11197;53.110;8.468;2022-09-01T04:10:31;2.15;;;1.40;;
22064;SDS011;11197;53.110;8.468;2022-09-01T04:13:00;2.65;;;1.40;;
22064;SDS011;11197;53.110;8.468;2022-09-01T04:15:27;2.38;;;1.50;;
22064;SDS011;11197;53.110;8.468;2022-09-01T04:17:54;2.92;;;1.77;;
22064;SDS011;11197;53.110;8.468;2022-09-01T04:20:40;3.20;;;1.40;;
22064;SDS011;11197;53.110;8.468;2022-09-01T04:23:18;3.30;;;1.70;;
22064;SDS011;11197;53.110;8.468;2022-09-01T04:26:07;3.35;;;1.85;;
22064;SDS011;11197;53.110;8.468;2022-09-01T04:28:42;2.92;;;1.60;;
22064;SDS011;11197;53.110;8.468;2022-09-01T04:31:11;2.67;;;1.42;;
22064;SDS011;11197;53.110;8.468;2022-09-01T04:33:43;5.32;;;2.00;;
22064;SDS011;11197;53.110;8.468;2022-09-01T04:36:13;3.87;;;1.80;;
22064;SDS011;11197;53.110;8.468;2022-09-01T04:38:49;3.35;;;1.73;;
22064;SDS011;11197;53.110;8.468;2022-09-01T04:41:19;3.63;;;1.75;;
22064;SDS011;11197;53.110;8.468;2022-09-01T04:43:47;4.28;;;1.60;;
22064;SDS011;11197;53.110;8.468;2022-09-01T04:46:17;3.72;;;2.10;;
22064;SDS011;11197;53.110;8.468;2022-09-01T04:48:44;3.80;;;1.90;;
22064;SDS011;11197;53.110;8.468;2022-09-01T04:51:14;5.47;;;1.80;;
22064;SDS011;11197;53.110;8.468;2022-09-01T04:53:54;3.88;;;1.73;;
22064;SDS011;11197;53.110;8.468;2022-09-01T04:56:23;4.00;;;1.75;;
22064;SDS011;11197;53.110;8.468;2022-09-01T04:59:04;4.13;;;2.00;;
22064;SDS011;11197;53.110;8.468;2022-09-01T05:01:33;5.03;;;1.90;;
22064;SDS011;11197;53.110;8.468;2022-09-01T05:04:21;3.63;;;1.90;;
22064;SDS011;11197;53.110;8.468;2022-09-01T05:06:54;4.28;;;2.00;;
22064;SDS011;11197;53.110;8.468;2022-09-01T05:09:31;4.10;;;2.13;;
22064;SDS011;11197;53.110;8.468;2022-09-01T05:12:31;4.60;;;2.00;;
22064;SDS011;11197;53.110;8.468;2022-09-01T05:14:57;4.90;;;2.05;;
22064;SDS011;11197;53.110;8.468;2022-09-01T05:17:24;5.80;;;2.05;;
22064;SDS011;11197;53.110;8.468;2022-09-01T05:19:53;3.63;;;1.92;;
22064;SDS011;11197;53.110;8.468;2022-09-01T05:22:20;5.10;;;2.10;;
22064;SDS011;11197;53.110;8.468;2022-09-01T05:24:59;4.15;;;1.67;;
22064;SDS011;11197;53.110;8.468;2022-09-01T05:27:39;5.88;;;2.05;;
22064;SDS011;11197;53.110;8.468;2022-09-01T05:30:10;7.53;;;2.75;;
22064;SDS011;11197;53.110;8.468;2022-09-01T05:32:37;7.70;;;2.35;;
22064;SDS011;11197;53.110;8.468;2022-09-01T05:35:04;5.25;;;2.50;;
22064;SDS011;11197;53.110;8.468;2022-09-01T05:37:35;5.70;;;2.25;;
22064;SDS011;11197;53.110;8.468;2022-09-01T05:40:06;4.47;;;2.30;;
22064;SDS011;11197;53.110;8.468;2022-09-01T05:42:44;4.63;;;2.47;;
22064;SDS011;11197;53.110;8.468;2022-09-01T05:45:10;4.57;;;1.85;;
22064;SDS011;11197;53.110;8.468;2022-09-01T05:47:39;7.18;;;2.75;;
22064;SDS011;11197;53.110;8.468;2022-09-01T05:50:08;5.47;;;2.40;;
22064;SDS011;11197;53.110;8.468;2022-09-01T05:52:37;7.75;;;2.10;;
22064;SDS011;11197;53.110;8.468;2022-09-01T05:55:04;5.85;;;2.58;;
22064;SDS011;11197;53.110;8.468;2022-09-01T05:57:35;3.58;;;2.40;;
22064;SDS011;11197;53.110;8.468;2022-09-01T06:00:05;7.90;;;2.53;;
22064;SDS011;11197;53.110;8.468;2022-09-01T06:02:38;4.15;;;2.08;;
22064;SDS011;11197;53.110;8.468;2022-09-01T06:05:09;5.57;;;2.42;;
22064;SDS011;11197;53.110;8.468;2022-09-01T06:07:35;8.32;;;2.42;;
22064;SDS011;11197;53.110;8.468;2022-09-01T06:10:04;5.80;;;2.60;;
22064;SDS011;11197;53.110;8.468;2022-09-01T06:12:31;6.68;;;2.50;;
22064;SDS011;11197;53.110;8.468;2022-09-01T06:14:58;6.10;;;2.10;;
22064;SDS011;11197;53.110;8.468;2022-09-01T06:17:26;5.35;;;2.50;;
22064;SDS011;11197;53.110;8.468;2022-09-01T06:19:59;3.95;;;1.90;;
22064;SDS011;11197;53.110;8.468;2022-09-01T06:22:26;4.90;;;2.60;;
22064;SDS011;11197;53.110;8.468;2022-09-01T06:24:53;7.03;;;2.70;;
22064;SDS011;11197;53.110;8.468;2022-09-01T06:27:20;4.28;;;2.13;;
22064;SDS011;11197;53.110;8.468;2022-09-01T06:29:47;4.70;;;2.22;;
22064;SDS011;11197;53.110;8.468;2022-09-01T06:32:21;5.03;;;2.42;;
22064;SDS011;11197;53.110;8.468;2022-09-01T06:34:50;5.95;;;2.63;;
22064;SDS011;11197;53.110;8.468;2022-09-01T06:37:16;6.60;;;2.78;;
22064;SDS011;11197;53.110;8.468;2022-09-01T06:39:48;4.53;;;2.15;;
22064;SDS011;11197;53.110;8.468;2022-09-01T06:42:15;6.47;;;3.00;;
22064;SDS011;11197;53.110;8.468;2022-09-01T06:44:48;6.55;;;2.97;;
22064;SDS011;11197;53.110;8.468;2022-09-01T06:47:14;9.65;;;3.20;;
22064;SDS011;11197;53.110;8.468;2022-09-01T06:49:40;8.80;;;3.70;;
22064;SDS011;11197;53.110;8.468;2022-09-01T06:52:12;8.48;;;2.83;;
22064;SDS011;11197;53.110;8.468;2022-09-01T06:54:40;6.60;;;3.00;;
22064;SDS011;11197;53.110;8.468;2022-09-01T06:57:08;5.13;;;2.72;;
22064;SDS011;11197;53.110;8.468;2022-09-01T06:59:35;8.20;;;2.97;;
22064;SDS011;11197;53.110;8.468;2022-09-01T07:02:03;6.78;;;2.60;;
22064;SDS011;11197;53.110;8.468;2022-09-01T07:04:53;4.53;;;2.15;;
22064;SDS011;11197;53.110;8.468;2022-09-01T07:07:19;3.55;;;2.70;;
22064;SDS011;11197;53.110;8.468;2022-09-01T07:10:05;5.55;;;2.30;;
22064;SDS011;11197;53.110;8.468;2022-09-01T07:12:37;4.93;;;2.50;;
22064;SDS011;11197;53.110;8.468;2022-09-01T07:15:06;4.57;;;2.53;;
22064;SDS011;11197;53.110;8.468;2022-09-01T07:17:33;3.88;;;2.40;;
22064;SDS011;11197;53.110;8.468;2022-09-01T07:19:59;6.43;;;3.00;;
22064;SDS011;11197;53.110;8.468;2022-09-01T07:22:25;4.97;;;2.33;;
22064;SDS011;11197;53.110;8.468;2022-09-01T07:24:51;3.95;;;2.47;;
22064;SDS011;11197;53.110;8.468;2022-09-01T07:27:56;5.05;;;2.22;;
22064;SDS011;11197;53.110;8.468;2022-09-01T07:30:25;4.72;;;2.30;;
22064;SDS011;11197;53.110;8.468;2022-09-01T07:32:51;6.70;;;1.92;;
22064;SDS011;11197;53.110;8.468;2022-09-01T07:35:19;3.72;;;2.30;;
22064;SDS011;11197;53.110;8.468;2022-09-01T07:37:48;3.80;;;2.40;;
22064;SDS011;11197;53.110;8.468;2022-09-01T07:40:16;5.03;;;2.35;;
22064;SDS011;11197;53.110;8.468;2022-09-01T07:42:56;3.80;;;2.13;;
22064;SDS011;11197;53.110;8.468;2022-09-01T07:45:44;6.25;;;2.00;;
22064;SDS011;11197;53.110;8.468;2022-09-01T07:48:16;5.20;;;1.98;;
22064;SDS011;11197;53.110;8.468;2022-09-01T07:50:48;5.40;;;1.80;;
22064;SDS011;11197;53.110;8.468;2022-09-01T07:53:25;4.40;;;1.80;;
22064;SDS011;11197;53.110;8.468;2022-09-01T07:55:54;3.10;;;1.70;;
22064;SDS011;11197;53.110;8.468;2022-09-01T07:58:24;4.78;;;1.80;;
22064;SDS011;11197;53.110;8.468;2022-09-01T08:00:57;3.15;;;1.60;;
22064;SDS011;11197;53.110;8.468;2022-09-01T08:03:27;5.97;;;1.75;;
22064;SDS011;11197;53.110;8.468;2022-09-01T08:05:54;5.18;;;1.52;;
22064;SDS011;11197;53.110;8.468;2022-09-01T08:08:25;5.72;;;1.58;;
22064;SDS011;11197;53.110;8.468;2022-09-01T08:10:51;6.43;;;1.55;;
22064;SDS011;11197;53.110;8.468;2022-09-01T08:13:17;3.95;;;1.38;;
22064;SDS011;11197;53.110;8.468;2022-09-01T08:15:44;2.60;;;1.00;;
22064;SDS011;11197;53.110;8.468;2022-09-01T08:18:12;4.43;;;1.40;;
22064;SDS011;11197;53.110;8.468;2022-09-01T08:20:38;3.25;;;1.10;;
22064;SDS011;11197;53.110;8.468;2022-09-01T08:23:21;3.25;;;1.13;;
22064;SDS011;11197;53.110;8.468;2022-09-01T08:25:51;2.88;;;1.02;;
22064;SDS011;11197;53.110;8.468;2022-09-01T08:28:18;4.40;;;0.90;;
22064;SDS011;11197;53.110;8.468;2022-09-01T08:30:45;2.33;;;0.98;;
22064;SDS011;11197;53.110;8.468;2022-09-01T08:33:14;2.65;;;0.90;;
22064;SDS011;11197;53.110;8.468;2022-09-01T08:35:44;5.18;;;0.80;;
22064;SDS011;11197;53.110;8.468;2022-09-01T08:38:12;2.67;;;0.80;;
22064;SDS011;11197;53.110;8.468;2022-09-01T08:40:40;5.32;;;1.00;;
22064;SDS011;11197;53.110;8.468;2022-09-01T08:48:19;3.83;;;0.80;;
22064;SDS011;11197;53.110;8.468;2022-09-01T08:50:52;2.50;;;0.77;;
22064;SDS011;11197;53.110;8.468;2022-09-01T08:54:03;3.53;;;0.70;;
22064;SDS011;11197;53.110;8.468;2022-09-01T08:56:37;2.08;;;0.73;;
22064;SDS011;11197;53.110;8.468;2022-09-01T08:59:05;2.35;;;0.70;;
22064;SDS011;11197;53.110;8.468;2022-09-01T09:04:46;2.08;;;0.60;;
22064;SDS011;11197;53.110;8.468;2022-09-01T09:18:22;3.10;;;0.60;;
22064;SDS011;11197;53.110;8.468;2022-09-01T09:21:01;1.17;;;0.60;;
22064;SDS011;11197;53.110;8.468;2022-09-01T09:23:41;1.92;;;0.57;;
22064;SDS011;11197;53.110;8.468;2022-09-01T09:26:10;4.68;;;0.70;;
22064;SDS011;11197;53.110;8.468;2022-09-01T09:28:37;1.75;;;0.55;;
22064;SDS011;11197;53.110;8.468;2022-09-01T09:36:59;1.42;;;0.57;;
22064;SDS011;11197;53.110;8.468;2022-09-01T09:40:20;1.33;;;0.70;;
22064;SDS011;11197;53.110;8.468;2022-09-01T09:48:29;2.25;;;0.60;;
22064;SDS011;11197;53.110;8.468;2022-09-01T09:51:14;3.80;;;0.60;;
22064;SDS011;11197;53.110;8.468;2022-09-01T09:53:42;1.85;;;0.60;;
22064;SDS011;11197;53.110;8.468;2022-09-01T09:56:18;5.03;;;0.80;;
22064;SDS011;11197;53.110;8.468;2022-09-01T09:58:50;2.85;;;0.60;;
22064;SDS011;11197;53.110;8.468;2022-09-01T10:03:48;3.05;;;0.60;;
22064;SDS011;11197;53.110;8.468;2022-09-01T10:09:03;1.30;;;0.40;;
22064;SDS011;11197;53.110;8.468;2022-09-01T10:11:38;0.73;;;0.40;;
22064;SDS011;11197;53.110;8.468;2022-09-01T10:14:19;3.25;;;0.55;;
22064;SDS011;11197;53.110;8.468;2022-09-01T10:16:52;2.30;;;0.40;;
22064;SDS011;11197;53.110;8.468;2022-09-01T10:19:27;3.05;;;0.50;;
22064;SDS011;11197;53.110;8.468;2022-09-01T10:21:57;2.20;;;0.50;;
22064;SDS011;11197;53.110;8.468;2022-09-01T10:24:28;2.13;;;0.60;;
22064;SDS011;11197;53.110;8.468;2022-09-01T10:26:59;3.33;;;0.40;;
22064;SDS011;11197;53.110;8.468;2022-09-01T10:34:58;1.30;;;0.30;;
22064;SDS011;11197;53.110;8.468;2022-09-01T10:37:25;1.55;;;0.40;;
22064;SDS011;11197;53.110;8.468;2022-09-01T10:42:42;0.95;;;0.40;;
22064;SDS011;11197;53.110;8.468;2022-09-01T10:50:51;5.03;;;0.60;;
22064;SDS011;11197;53.110;8.468;2022-09-01T10:56:41;1.02;;;0.50;;
22064;SDS011;11197;53.110;8.468;2022-09-01T10:59:24;0.50;;;0.38;;
22064;SDS011;11197;53.110;8.468;2022-09-01T11:04:23;2.08;;;0.60;;
22064;SDS011;11197;53.110;8.468;2022-09-01T11:10:36;1.08;;;0.50;;
22064;SDS011;11197;53.110;8.468;2022-09-01T11:15:32;3.97;;;0.50;;
22064;SDS011;11197;53.110;8.468;2022-09-01T11:18:08;1.85;;;0.35;;
22064;SDS011;11197;53.110;8.468;2022-09-01T11:20:47;0.93;;;0.43;;
22064;SDS011;11197;53.110;8.468;2022-09-01T11:25:47;1.35;;;0.40;;
22064;SDS011;11197;53.110;8.468;2022-09-01T11:49:59;1.70;;;0.50;;
22064;SDS011;11197;53.110;8.468;2022-09-01T11:52:38;1.02;;;0.50;;
22064;SDS011;11197;53.110;8.468;2022-09-01T11:55:05;1.95;;;0.40;;
22064;SDS011;11197;53.110;8.468;2022-09-01T11:57:34;1.13;;;0.40;;
22064;SDS011;11197;53.110;8.468;2022-09-01T12:00:07;3.85;;;0.43;;
22064;SDS011;11197;53.110;8.468;2022-09-01T12:02:45;1.33;;;0.40;;
22064;SDS011;11197;53.110;8.468;2022-09-01T12:05:25;2.38;;;0.50;;
22064;SDS011;11197;53.110;8.468;2022-09-01T12:07:51;1.13;;;0.50;;
22064;SDS011;11197;53.110;8.468;2022-09-01T12:10:19;2.53;;;0.57;;
22064;SDS011;11197;53.110;8.468;2022-09-01T12:12:46;3.25;;;0.50;;
22064;SDS011;11197;53.110;8.468;2022-09-01T12:15:24;2.67;;;0.40;;
22064;SDS011;11197;53.110;8.468;2022-09-01T12:17:52;1.10;;;0.52;;
22064;SDS011;11197;53.110;8.468;2022-09-01T12:20:34;1.15;;;0.40;;
22064;SDS011;11197;53.110;8.468;2022-09-01T12:23:02;1.67;;;0.47;;
22064;SDS011;11197;53.110;8.468;2022-09-01T12:25:43;1.60;;;0.30;;
22064;SDS011;11197;53.110;8.468;2022-09-01T12:28:09;1.30;;;0.47;;
22064;SDS011;11197;53.110;8.468;2022-09-01T12:30:36;1.38;;;0.30;;
22064;SDS011;11197;53.110;8.468;2022-09-01T12:33:05;1.55;;;0.40;;
22064;SDS011;11197;53.110;8.468;2022-09-01T12:35:34;0.82;;;0.40;;
22064;SDS011;11197;53.110;8.468;2022-09-01T12:41:03;1.48;;;0.55;;
22064;SDS011;11197;53.110;8.468;2022-09-01T12:47:00;2.17;;;0.30;;
22064;SDS011;11197;53.110;8.468;2022-09-01T12:49:45;2.55;;;0.50;;
22064;SDS011;11197;53.110;8.468;2022-09-01T12:54:51;1.27;;;0.40;;
22064;SDS011;11197;53.110;8.468;2022-09-01T12:58:01;2.65;;;0.38;;
22064;SDS011;11197;53.110;8.468;2022-09-01T13:00:23;0.70;;;0.40;;
22064;SDS011;11197;53.110;8.468;2022-09-01T13:05:53;3.13;;;0.40;;
22064;SDS011;11197;53.110;8.468;2022-09-01T13:08:17;2.15;;;0.55;;
22064;SDS011;11197;53.110;8.468;2022-09-01T13:10:46;0.90;;;0.40;;
22064;SDS011;11197;53.110;8.468;2022-09-01T13:13:14;5.50;;;0.73;;
22064;SDS011;11197;53.110;8.468;2022-09-01T13:15:43;3.15;;;0.40;;
22064;SDS011;11197;53.110;8.468;2022-09-01T13:18:21;1.10;;;0.50;;
22064;SDS011;11197;53.110;8.468;2022-09-01T13:20:49;1.80;;;0.50;;
22064;SDS011;11197;53.110;8.468;2022-09-01T13:23:17;1.83;;;0.40;;
22064;SDS011;11197;53.110;8.468;2022-09-01T13:25:44;1.10;;;0.60;;
22064;SDS011;11197;53.110;8.468;2022-09-01T13:28:11;1.40;;;0.50;;
22064;SDS011;11197;53.110;8.468;2022-09-01T13:30:38;2.47;;;0.55;;
22064;SDS011;11197;53.110;8.468;2022-09-01T13:33:05;3.97;;;0.52;;
22064;SDS011;11197;53.110;8.468;2022-09-01T13:35:31;0.85;;;0.40;;
22064;SDS011;11197;53.110;8.468;2022-09-01T13:37:57;5.57;;;0.60;;
22064;SDS011;11197;53.110;8.468;2022-09-01T13:40:23;1.30;;;0.50;;
22064;SDS011;11197;53.110;8.468;2022-09-01T13:42:52;1.38;;;0.40;;
22064;SDS011;11197;53.110;8.468;2022-09-01T13:45:19;2.17;;;0.70;;
22064;SDS011;11197;53.110;8.468;2022-09-01T13:47:49;1.60;;;0.40;;
22064;SDS011;11197;53.110;8.468;2022-09-01T13:50:17;0.70;;;0.40;;
22064;SDS011;11197;53.110;8.468;2022-09-01T13:52:46;1.00;;;0.40;;
22064;SDS011;11197;53.110;8.468;2022-09-01T13:55:15;1.23;;;0.50;;
22064;SDS011;11197;53.110;8.468;2022-09-01T13:57:44;1.33;;;0.40;;
22064;SDS011;11197;53.110;8.468;2022-09-01T14:00:11;2.33;;;0.43;;
22064;SDS011;11197;53.110;8.468;2022-09-01T14:02:44;1.63;;;0.60;;
22064;SDS011;11197;53.110;8.468;2022-09-01T14:05:22;3.55;;;0.65;;
22064;SDS011;11197;53.110;8.468;2022-09-01T14:07:53;0.95;;;0.50;;
22064;SDS011;11197;53.110;8.468;2022-09-01T14:10:20;2.88;;;0.40;;
22064;SDS011;11197;53.110;8.468;2022-09-01T14:12:48;1.63;;;0.75;;
22064;SDS011;11197;53.110;8.468;2022-09-01T14:15:15;2.60;;;0.57;;
22064;SDS011;11197;53.110;8.468;2022-09-01T14:17:42;1.75;;;0.45;;
22064;SDS011;11197;53.110;8.468;2022-09-01T14:20:11;1.55;;;0.50;;
22064;SDS011;11197;53.110;8.468;2022-09-01T14:22:42;1.42;;;0.60;;
22064;SDS011;11197;53.110;8.468;2022-09-01T14:25:10;3.10;;;0.52;;
22064;SDS011;11197;53.110;8.468;2022-09-01T14:27:36;2.15;;;0.70;;
22064;SDS011;11197;53.110;8.468;2022-09-01T14:30:06;5.07;;;0.77;;
22064;SDS011;11197;53.110;8.468;2022-09-01T14:32:34;1.83;;;0.68;;
22064;SDS011;11197;53.110;8.468;2022-09-01T14:35:00;1.63;;;0.63;;
22064;SDS011;11197;53.110;8.468;2022-09-01T14:37:28;1.83;;;0.70;;
22064;SDS011;11197;53.110;8.468;2022-09-01T14:39:55;3.17;;;0.60;;
22064;SDS011;11197;53.110;8.468;2022-09-01T14:42:23;2.47;;;0.70;;
22064;SDS011;11197;53.110;8.468;2022-09-01T14:44:53;1.48;;;0.57;;
22064;SDS011;11197;53.110;8.468;2022-09-01T14:47:20;5.78;;;0.70;;
22064;SDS011;11197;53.110;8.468;2022-09-01T14:49:50;4.65;;;0.73;;
22064;SDS011;11197;53.110;8.468;2022-09-01T14:52:17;1.55;;;0.70;;
22064;SDS011;11197;53.110;8.468;2022-09-01T14:54:44;1.38;;;0.70;;
22064;SDS011;11197;53.110;8.468;2022-09-01T14:57:11;2.65;;;0.70;;
22064;SDS011;11197;53.110;8.468;2022-09-01T14:59:38;1.50;;;0.88;;
22064;SDS011;11197;53.110;8.468;2022-09-01T15:02:06;3.63;;;0.90;;
22064;SDS011;11197;53.110;8.468;2022-09-01T15:04:33;2.97;;;0.95;;
22064;SDS011;11197;53.110;8.468;2022-09-01T15:07:00;3.10;;;0.80;;
22064;SDS011;11197;53.110;8.468;2022-09-01T15:11:56;1.80;;;0.65;;
22064;SDS011;11197;53.110;8.468;2022-09-01T15:14:22;2.35;;;0.70;;
22064;SDS011;11197;53.110;8.468;2022-09-01T15:16:48;2.22;;;0.60;;
22064;SDS011;11197;53.110;8.468;2022-09-01T15:19:15;1.88;;;0.70;;
22064;SDS011;11197;53.110;8.468;2022-09-01T15:21:42;1.27;;;0.63;;
22064;SDS011;11197;53.110;8.468;2022-09-01T15:24:09;2.47;;;0.57;;
22064;SDS011;11197;53.110;8.468;2022-09-01T15:26:37;2.42;;;0.70;;
22064;SDS011;11197;53.110;8.468;2022-09-01T15:29:04;3.67;;;0.88;;
22064;SDS011;11197;53.110;8.468;2022-09-01T15:31:31;3.72;;;0.70;;
22064;SDS011;11197;53.110;8.468;2022-09-01T15:33:58;1.80;;;0.70;;
22064;SDS011;11197;53.110;8.468;2022-09-01T15:36:27;1.58;;;0.50;;
22064;SDS011;11197;53.110;8.468;2022-09-01T15:38:54;1.00;;;0.50;;
22064;SDS011;11197;53.110;8.468;2022-09-01T15:41:28;3.05;;;0.68;;
22064;SDS011;11197;53.110;8.468;2022-09-01T15:43:56;4.07;;;0.60;;
22064;SDS011;11197;53.110;8.468;2022-09-01T15:46:22;2.55;;;0.40;;
22064;SDS011;11197;53.110;8.468;2022-09-01T15:48:56;3.13;;;0.50;;
22064;SDS011;11197;53.110;8.468;2022-09-01T15:53:58;2.03;;;1.27;;
22064;SDS011;11197;53.110;8.468;2022-09-01T15:56:30;2.85;;;0.80;;
22064;SDS011;11197;53.110;8.468;2022-09-01T15:58:57;3.97;;;0.57;;
22064;SDS011;11197;53.110;8.468;2022-09-01T16:01:24;3.72;;;1.20;;
22064;SDS011;11197;53.110;8.468;2022-09-01T16:03:52;2.13;;;1.08;;
22064;SDS011;11197;53.110;8.468;2022-09-01T16:06:18;4.18;;;0.90;;
22064;SDS011;11197;53.110;8.468;2022-09-01T16:08:44;2.17;;;0.60;;
22064;SDS011;11197;53.110;8.468;2022-09-01T16:11:10;3.72;;;0.75;;
22064;SDS011;11197;53.110;8.468;2022-09-01T16:13:40;4.43;;;0.50;;
22064;SDS011;11197;53.110;8.468;2022-09-01T16:19:00;1.48;;;0.30;;
22064;SDS011;11197;53.110;8.468;2022-09-01T16:22:03;1.88;;;0.32;;
22064;SDS011;11197;53.110;8.468;2022-09-01T16:27:08;1.00;;;0.40;;
22064;SDS011;11197;53.110;8.468;2022-09-01T16:29:41;0.65;;;0.40;;
22064;SDS011;11197;53.110;8.468;2022-09-01T16:32:13;1.10;;;0.40;;
22064;SDS011;11197;53.110;8.468;2022-09-01T16:34:44;0.70;;;0.50;;
22064;SDS011;11197;53.110;8.468;2022-09-01T16:39:51;2.38;;;0.73;;
22064;SDS011;11197;53.110;8.468;2022-09-01T16:47:47;2.80;;;0.50;;
22064;SDS011;11197;53.110;8.468;2022-09-01T16:50:42;2.45;;;0.70;;
22064;SDS011;11197;53.110;8.468;2022-09-01T16:59:05;1.42;;;0.47;;
22064;SDS011;11197;53.110;8.468;2022-09-01T17:02:02;3.50;;;0.57;;
22064;SDS011;11197;53.110;8.468;2022-09-01T17:07:23;1.63;;;0.60;;
22064;SDS011;11197;53.110;8.468;2022-09-01T17:12:45;3.28;;;0.38;;
22064;SDS011;11197;53.110;8.468;2022-09-01T17:15:19;1.83;;;0.50;;
22064;SDS011;11197;53.110;8.468;2022-09-01T17:17:58;1.45;;;0.50;;
22064;SDS011;11197;53.110;8.468;2022-09-01T17:20:31;4.20;;;0.70;;
22064;SDS011;11197;53.110;8.468;2022-09-01T17:22:59;3.08;;;0.60;;
22064;SDS011;11197;53.110;8.468;2022-09-01T17:25:35;1.90;;;0.43;;
22064;SDS011;11197;53.110;8.468;2022-09-01T17:28:13;2.40;;;0.60;;
22064;SDS011;11197;53.110;8.468;2022-09-01T17:30:56;1.25;;;0.55;;